Time;durP1;ratioP1;P1;durP2;ratioP2;P2;SDS_P1;SDS_P2;PMS_P1;PMS_P2;Temp;Humidity;BMP_temperature;BMP_pressure;BME280_temperature;BME280_humidity;BME280_pressure;Samples;Min_cycle;Max_cycle;Signal;HPM_P1;HPM_P2
2022/02/20 00:01:42;;;;;;;4.53;1.77;;;;;;;3.86;67.28;97250.13;5071843;28;20510;-56
2022/02/20 00:04:08;;;;;;;4.05;1.90;;;;;;;3.82;67.12;97249.56;5071402;28;20523;-55
2022/02/20 00:06:33;;;;;;;3.97;1.70;;;;;;;3.59;66.94;97218.16;5071451;28;20104;-54
2022/02/20 00:08:59;;;;;;;4.30;1.73;;;;;;;3.79;67.58;97233.97;5071876;28;20094;-51
2022/02/20 00:11:24;;;;;;;4.43;1.45;;;;;;;3.80;67.72;97242.78;5050873;28;20441;-56
2022/02/20 00:13:52;;;;;;;2.75;1.35;;;;;;;3.84;67.05;97239.66;5070884;28;20040;-56
2022/02/20 00:16:17;;;;;;;4.10;1.95;;;;;;;3.85;67.40;97251.91;5071327;28;20108;-55
2022/02/20 00:18:43;;;;;;;2.92;2.00;;;;;;;3.84;67.75;97247.59;5071249;28;20051;-57
2022/02/20 00:21:08;;;;;;;2.08;1.55;;;;;;;3.84;67.53;97239.66;5070989;28;20067;-53
2022/02/20 00:23:34;;;;;;;3.63;1.77;;;;;;;3.88;67.66;97248.16;5071061;28;20134;-60
2022/02/20 00:25:59;;;;;;;2.90;1.80;;;;;;;3.89;67.65;97244.53;5071723;28;20123;-57
2022/02/20 00:28:25;;;;;;;1.80;1.45;;;;;;;3.84;68.02;97237.00;5071189;28;20020;-55
2022/02/20 00:30:51;;;;;;;3.67;1.30;;;;;;;3.85;67.81;97238.69;5070750;28;20381;-57
2022/02/20 00:33:16;;;;;;;4.18;1.55;;;;;;;3.82;67.87;97238.97;5071082;28;20099;-55
2022/02/20 00:35:42;;;;;;;2.38;1.48;;;;;;;3.81;67.92;97242.59;5071354;28;20063;-56
2022/02/20 00:38:10;;;;;;;3.00;1.23;;;;;;;3.81;68.19;97232.03;5070937;28;20028;-58
2022/02/20 00:40:35;;;;;;;2.97;1.60;;;;;;;3.81;68.08;97231.19;5070721;28;20066;-58
2022/02/20 00:43:01;;;;;;;3.03;1.55;;;;;;;3.67;68.05;97212.16;5071044;28;20020;-57
2022/02/20 00:45:27;;;;;;;2.10;1.50;;;;;;;3.78;68.30;97231.50;5071587;28;20477;-57
2022/02/20 00:47:54;;;;;;;2.20;1.63;;;;;;;3.72;68.17;97217.84;5070915;28;20077;-57
2022/02/20 00:50:19;;;;;;;1.80;1.33;;;;;;;3.73;68.12;97229.28;5070561;28;20043;-56
2022/02/20 00:52:45;;;;;;;2.78;1.50;;;;;;;3.68;68.22;97220.94;5071244;28;20466;-55
2022/02/20 00:55:11;;;;;;;2.53;1.48;;;;;;;3.71;68.24;97226.75;5071774;28;20500;-57
2022/02/20 00:57:37;;;;;;;2.40;1.55;;;;;;;3.66;68.20;97217.59;5071395;28;20059;-52
2022/02/20 01:00:05;;;;;;;3.05;1.40;;;;;;;3.68;68.05;97216.47;5070556;28;20449;-55
2022/02/20 01:02:31;;;;;;;2.58;1.30;;;;;;;3.69;68.44;97222.59;5071332;28;20032;-58
2022/02/20 01:04:56;;;;;;;3.70;1.23;;;;;;;3.70;68.17;97224.28;5071377;28;20028;-58
2022/02/20 01:07:22;;;;;;;2.10;1.17;;;;;;;3.69;67.85;97219.97;5071331;28;20086;-53
2022/02/20 01:09:48;;;;;;;1.70;1.27;;;;;;;3.65;67.63;97219.41;5071036;28;20350;-52
2022/02/20 01:12:16;;;;;;;1.75;1.13;;;;;;;3.61;68.29;97225.97;5070994;28;20370;-54
2022/02/20 01:14:42;;;;;;;2.15;1.15;;;;;;;3.54;68.31;97212.47;5071319;28;20028;-53
2022/02/20 01:17:08;;;;;;;2.50;1.15;;;;;;;3.61;68.62;97222.47;5071186;28;20032;-57
2022/02/20 01:19:33;;;;;;;1.70;1.00;;;;;;;3.61;68.02;97222.47;5070968;28;20049;-57
2022/02/20 01:21:59;;;;;;;1.10;1.00;;;;;;;3.57;68.57;97220.13;5070927;28;20032;-56
2022/02/20 01:24:24;;;;;;;1.33;1.00;;;;;;;3.60;68.10;97219.00;5071391;28;20203;-57
2022/02/20 01:26:50;;;;;;;1.40;1.00;;;;;;;3.49;68.70;97217.38;5070909;28;20025;-53
2022/02/20 01:29:15;;;;;;;2.03;0.90;;;;;;;3.50;68.84;97224.31;5070509;28;20450;-56
2022/02/20 01:31:41;;;;;;;1.50;0.93;;;;;;;3.51;68.58;97225.19;5070737;28;20027;-59
2022/02/20 01:34:06;;;;;;;2.33;1.40;;;;;;;3.51;68.54;97220.69;5070569;28;20029;-57
2022/02/20 01:36:32;;;;;;;1.48;1.00;;;;;;;3.29;68.79;97187.50;5070933;28;20028;-50
2022/02/20 01:38:57;;;;;;;2.38;0.90;;;;;;;3.53;68.56;97229.31;5070531;28;20033;-55
2022/02/20 01:41:23;;;;;;;2.25;1.00;;;;;;;3.57;68.63;97238.63;5052886;28;20452;-56
2022/02/20 01:43:52;;;;;;;1.80;0.98;;;;;;;3.63;68.64;97239.06;5070671;28;20108;-57
2022/02/20 01:46:18;;;;;;;1.55;0.85;;;;;;;3.61;68.15;97238.34;5070526;28;20072;-55
2022/02/20 01:48:43;;;;;;;1.90;0.93;;;;;;;3.56;68.48;97244.09;5070482;28;20409;-55
2022/02/20 01:51:09;;;;;;;1.85;0.82;;;;;;;3.51;68.73;97239.22;5070860;28;20033;-56
2022/02/20 01:53:34;;;;;;;2.80;1.10;;;;;;;3.56;68.79;97238.81;5070698;28;20035;-56
2022/02/20 01:56:02;;;;;;;1.00;0.60;;;;;;;3.58;68.60;97247.44;5070665;28;20443;-55
2022/02/20 01:58:27;;;;;;;1.00;0.82;;;;;;;3.57;68.51;97251.06;5070643;28;20067;-56
2022/02/20 02:00:53;;;;;;;1.05;0.65;;;;;;;3.51;68.74;97243.69;5070404;28;20058;-58
2022/02/20 02:03:20;;;;;;;1.30;0.70;;;;;;;3.43;68.59;97237.28;5070453;28;20039;-57
2022/02/20 02:05:47;;;;;;;1.33;0.65;;;;;;;3.38;68.34;97249.28;5070578;28;20444;-55
2022/02/20 02:08:14;;;;;;;1.20;0.80;;;;;;;3.34;69.07;97248.72;5070410;28;20026;-55
2022/02/20 02:10:40;;;;;;;1.15;0.80;;;;;;;3.06;69.46;97216.91;5070391;28;20029;-57
2022/02/20 02:13:05;;;;;;;1.17;0.70;;;;;;;3.21;69.54;97254.31;5074648;28;20036;-55
2022/02/20 02:15:31;;;;;;;1.25;1.00;;;;;;;3.20;69.59;97249.16;5073940;28;20024;-56
2022/02/20 02:17:56;;;;;;;1.48;1.00;;;;;;;3.18;70.12;97259.03;5055820;28;20047;-56
2022/02/20 02:20:22;;;;;;;1.30;0.88;;;;;;;3.18;69.47;97256.41;5074020;28;20044;-54
2022/02/20 02:22:47;;;;;;;1.30;1.02;;;;;;;2.97;70.14;97228.31;5074179;28;20056;-57
2022/02/20 02:25:13;;;;;;;1.63;0.90;;;;;;;3.13;69.60;97264.75;5073889;28;20028;-51
2022/02/20 02:27:39;;;;;;;1.55;0.85;;;;;;;3.10;70.17;97265.03;5073820;28;20082;-55
2022/02/20 02:30:07;;;;;;;1.63;1.00;;;;;;;3.09;70.62;97269.50;5074195;28;20033;-56
2022/02/20 02:32:33;;;;;;;1.55;0.70;;;;;;;2.89;70.22;97217.59;5074396;28;20025;-54
2022/02/20 02:34:58;;;;;;;0.75;0.75;;;;;;;3.06;70.36;97258.34;5073502;28;20454;-56
2022/02/20 02:37:24;;;;;;;0.80;0.80;;;;;;;3.08;70.41;97264.34;5073637;28;20040;-55
2022/02/20 02:39:50;;;;;;;1.85;0.82;;;;;;;3.07;70.44;97268.78;5074110;28;20037;-60
2022/02/20 02:42:15;;;;;;;3.10;1.00;;;;;;;3.08;70.41;97261.69;5074216;28;20134;-57
2022/02/20 02:44:41;;;;;;;2.40;1.10;;;;;;;3.05;70.26;97251.41;5073355;28;20122;-58
2022/02/20 02:47:10;;;;;;;0.85;0.82;;;;;;;3.08;69.96;97264.34;5073386;28;20393;-55
2022/02/20 02:49:38;;;;;;;1.88;0.93;;;;;;;3.10;70.73;97267.66;5074136;28;20029;-57
2022/02/20 02:52:05;;;;;;;1.48;0.77;;;;;;;3.06;70.37;97268.94;5074020;28;20101;-55
2022/02/20 02:54:30;;;;;;;1.73;0.90;;;;;;;3.03;70.53;97264.78;5072899;28;20028;-56
2022/02/20 02:56:56;;;;;;;1.08;0.88;;;;;;;3.06;70.43;97267.13;5072928;28;20033;-56
2022/02/20 02:59:22;;;;;;;1.38;0.90;;;;;;;3.09;70.25;97271.28;5073576;28;20028;-54
2022/02/20 03:01:48;;;;;;;0.82;0.80;;;;;;;3.06;70.67;97271.56;5073613;28;20021;-56
2022/02/20 03:04:14;;;;;;;1.70;0.75;;;;;;;3.05;70.26;97269.91;5073187;28;20554;-56
2022/02/20 03:06:40;;;;;;;0.68;0.68;;;;;;;3.02;70.65;97260.47;5073074;28;20063;-57
2022/02/20 03:09:06;;;;;;;1.63;0.90;;;;;;;3.09;70.96;97273.94;5073824;28;20025;-59
2022/02/20 03:11:32;;;;;;;1.08;0.93;;;;;;;3.09;70.62;97277.41;5073512;28;20040;-54
2022/02/20 03:13:58;;;;;;;0.80;0.60;;;;;;;3.11;70.20;97282.56;5072718;28;20028;-56
2022/02/20 03:16:23;;;;;;;1.67;0.77;;;;;;;3.10;70.50;97276.44;5072688;28;20058;-54
2022/02/20 03:18:49;;;;;;;0.73;0.70;;;;;;;3.11;70.13;97272.81;5073042;28;20473;-57
2022/02/20 03:21:14;;;;;;;0.90;0.70;;;;;;;3.12;70.36;97279.78;5072973;28;20040;-55
2022/02/20 03:23:40;;;;;;;1.63;0.85;;;;;;;3.16;70.04;97275.88;5072461;28;20033;-55
2022/02/20 03:26:05;;;;;;;0.90;0.80;;;;;;;3.16;70.38;97280.34;5072337;28;20032;-54
2022/02/20 03:28:31;;;;;;;1.88;0.80;;;;;;;3.11;70.38;97269.34;5072431;28;20028;-55
2022/02/20 03:30:57;;;;;;;1.40;1.10;;;;;;;3.15;70.56;97286.63;5072470;28;20478;-55
2022/02/20 03:33:22;;;;;;;1.98;1.00;;;;;;;3.15;70.65;97289.25;5072420;28;20028;-55
2022/02/20 03:35:48;;;;;;;1.05;0.90;;;;;;;3.12;70.05;97282.44;5072123;28;20066;-55
2022/02/20 03:38:14;;;;;;;0.90;0.82;;;;;;;3.19;70.02;97290.63;5072732;28;20040;-57
2022/02/20 03:40:40;;;;;;;2.47;1.08;;;;;;;3.17;70.10;97276.72;5072233;28;20040;-54
2022/02/20 03:43:06;;;;;;;1.60;0.85;;;;;;;2.94;69.76;97241.78;5072157;28;20024;-53
2022/02/20 03:45:32;;;;;;;1.95;0.85;;;;;;;3.19;69.50;97290.63;5072699;28;20056;-54
2022/02/20 03:47:58;;;;;;;2.25;0.90;;;;;;;3.21;70.05;97304.56;5072118;28;20071;-52
2022/02/20 03:50:24;;;;;;;1.90;0.90;;;;;;;3.18;69.76;97304.84;5071914;28;20055;-58
2022/02/20 03:52:50;;;;;;;1.70;0.90;;;;;;;3.21;69.89;97299.28;5072736;28;20461;-52
2022/02/20 03:55:17;;;;;;;1.90;1.13;;;;;;;3.14;69.75;97298.16;5071817;28;20389;-55
2022/02/20 03:57:43;;;;;;;2.45;1.10;;;;;;;3.25;69.95;97313.88;5071919;28;20037;-55
2022/02/20 04:00:10;;;;;;;1.10;0.90;;;;;;;3.30;70.21;97303.69;5072485;28;20033;-56
2022/02/20 04:02:37;;;;;;;0.65;0.65;;;;;;;3.29;69.98;97312.63;5071744;28;20055;-57
2022/02/20 04:05:07;;;;;;;1.83;0.80;;;;;;;3.24;69.82;97308.72;5071720;28;20032;-57
2022/02/20 04:07:35;;;;;;;1.95;0.73;;;;;;;3.32;69.24;97318.59;5072195;28;20027;-55
2022/02/20 04:10:03;;;;;;;0.70;0.70;;;;;;;3.29;69.72;97314.44;5071863;28;20025;-56
2022/02/20 04:12:29;;;;;;;0.88;0.80;;;;;;;3.27;69.85;97319.84;5071463;28;20037;-55
2022/02/20 04:14:56;;;;;;;1.65;0.90;;;;;;;3.28;69.61;97326.00;5071622;28;20024;-55
2022/02/20 04:17:21;;;;;;;0.90;0.80;;;;;;;3.31;69.24;97325.72;5071920;28;20036;-57
2022/02/20 04:19:48;;;;;;;1.35;0.77;;;;;;;3.33;69.54;97333.50;5071512;28;20496;-56
2022/02/20 04:22:14;;;;;;;0.73;0.70;;;;;;;3.30;69.39;97330.16;5071974;28;20048;-56
2022/02/20 04:24:40;;;;;;;0.80;0.75;;;;;;;3.35;69.74;97334.19;5071790;28;20090;-57
2022/02/20 04:27:06;;;;;;;0.90;0.80;;;;;;;3.37;69.16;97333.06;5071915;28;20040;-58
2022/02/20 04:29:31;;;;;;;1.05;0.90;;;;;;;3.26;69.28;97315.53;5071284;28;20028;-55
2022/02/20 04:31:57;;;;;;;1.55;0.90;;;;;;;3.13;68.96;97299.09;5071242;28;20043;-56
2022/02/20 04:34:22;;;;;;;1.23;0.90;;;;;;;3.38;69.42;97347.16;5071255;28;20032;-56
2022/02/20 04:36:48;;;;;;;0.80;0.70;;;;;;;3.37;69.71;97348.09;5071710;28;20044;-56
2022/02/20 04:39:13;;;;;;;0.90;0.77;;;;;;;3.40;69.65;97356.59;5071437;28;20039;-53
2022/02/20 04:41:39;;;;;;;1.92;0.75;;;;;;;3.24;69.41;97325.44;5070940;28;20020;-58
2022/02/20 04:44:04;;;;;;;2.45;0.73;;;;;;;3.41;68.85;97354.81;5071424;28;20043;-56
2022/02/20 04:46:34;;;;;;;1.00;0.68;;;;;;;3.46;68.46;97376.38;5071634;28;20156;-55
2022/02/20 04:49:00;;;;;;;0.85;0.68;;;;;;;3.45;68.89;97369.41;5070995;28;20378;-57
2022/02/20 04:51:25;;;;;;;0.70;0.65;;;;;;;3.41;68.82;97357.44;5070797;28;20081;-57
2022/02/20 04:53:51;;;;;;;1.00;0.70;;;;;;;3.46;68.30;97355.22;5071442;28;20044;-61
2022/02/20 04:56:17;;;;;;;2.00;0.70;;;;;;;3.48;68.42;97377.06;5071474;28;20064;-58
2022/02/20 04:58:42;;;;;;;0.90;0.70;;;;;;;3.45;68.36;97383.47;5071652;28;20111;-57
2022/02/20 05:01:08;;;;;;;1.67;0.60;;;;;;;3.40;68.29;97387.53;5070863;28;20037;-57
2022/02/20 05:03:34;;;;;;;0.90;0.80;;;;;;;3.36;68.79;97388.75;5071101;28;20116;-58
2022/02/20 05:05:59;;;;;;;0.82;0.70;;;;;;;3.35;69.25;97395.00;5071171;28;20034;-55
2022/02/20 05:08:25;;;;;;;2.22;0.70;;;;;;;3.38;68.86;97389.47;5071236;28;20066;-55
2022/02/20 05:10:50;;;;;;;1.17;0.60;;;;;;;3.30;68.50;97377.75;5070799;28;20032;-58
2022/02/20 05:13:16;;;;;;;1.63;0.70;;;;;;;3.22;68.40;97385.56;5071006;28;20037;-57
2022/02/20 05:15:41;;;;;;;1.98;0.90;;;;;;;3.32;68.87;97390.84;5071328;28;20082;-56
2022/02/20 05:18:07;;;;;;;0.55;0.52;;;;;;;3.43;68.45;97401.28;5070694;28;20469;-51
2022/02/20 05:20:33;;;;;;;1.33;0.65;;;;;;;3.27;68.85;97372.75;5070399;28;20485;-53
2022/02/20 05:22:58;;;;;;;1.17;0.50;;;;;;;3.48;68.85;97408.81;5070527;28;20037;-53
2022/02/20 05:25:23;;;;;;;0.70;0.50;;;;;;;3.44;68.61;97400.31;5070781;28;20385;-52
2022/02/20 05:27:49;;;;;;;0.60;0.50;;;;;;;3.49;68.45;97410.47;5070784;28;20032;-53
2022/02/20 05:30:16;;;;;;;0.75;0.60;;;;;;;3.51;68.68;97421.75;5070695;28;20040;-51
2022/02/20 05:32:42;;;;;;;1.33;0.60;;;;;;;3.48;68.11;97414.09;5070747;28;20025;-54
2022/02/20 05:35:08;;;;;;;0.70;0.50;;;;;;;3.45;68.61;97438.19;5070509;28;20838;-56
2022/02/20 05:37:42;;;;;;;0.88;0.55;;;;;;;3.41;68.92;97429.69;5070215;28;20029;-50
2022/02/20 05:40:10;;;;;;;0.73;0.50;;;;;;;3.41;68.75;97439.44;5070783;28;20025;-50
2022/02/20 05:42:35;;;;;;;1.30;0.55;;;;;;;3.39;68.93;97444.88;5070719;28;20029;-53
2022/02/20 05:45:01;;;;;;;4.10;0.80;;;;;;;3.39;69.01;97434.28;5070673;28;20480;-58
2022/02/20 05:47:28;;;;;;;0.90;0.60;;;;;;;3.25;69.43;97424.94;5056847;28;20478;-57
2022/02/20 05:49:54;;;;;;;1.25;0.60;;;;;;;3.23;69.76;97418.97;5074300;28;20102;-55
2022/02/20 05:52:20;;;;;;;1.15;0.80;;;;;;;3.33;69.25;97441.94;5074393;28;20021;-55
2022/02/20 05:54:45;;;;;;;0.80;0.73;;;;;;;3.51;69.35;97461.44;5074907;28;20070;-58
2022/02/20 05:57:11;;;;;;;1.65;0.90;;;;;;;3.51;69.42;97464.09;5074477;28;20039;-55
2022/02/20 05:59:36;;;;;;;1.55;0.80;;;;;;;3.50;69.29;97457.13;5073801;28;20039;-55
2022/02/20 06:02:02;;;;;;;1.42;0.80;;;;;;;3.52;70.05;97465.75;5074263;28;20420;-50
2022/02/20 06:04:27;;;;;;;0.82;0.82;;;;;;;3.56;69.61;97477.75;5074617;28;20120;-53
2022/02/20 06:06:53;;;;;;;1.95;0.85;;;;;;;3.64;69.01;97470.94;5073943;28;20438;-51
2022/02/20 06:09:18;;;;;;;1.50;0.85;;;;;;;3.72;69.33;97482.47;5074136;28;20112;-51
2022/02/20 06:11:44;;;;;;;1.95;1.10;;;;;;;3.82;68.87;97485.13;5074364;28;20063;-53
2022/02/20 06:14:09;;;;;;;2.03;0.60;;;;;;;3.95;68.24;97491.97;5074304;28;20830;-55
2022/02/20 06:16:35;;;;;;;1.48;0.60;;;;;;;4.06;67.93;97496.31;5073844;28;20436;-55
2022/02/20 06:19:00;;;;;;;0.98;0.80;;;;;;;4.14;67.42;97507.00;5073972;28;20041;-55
2022/02/20 06:21:26;;;;;;;2.00;0.73;;;;;;;4.16;67.85;97513.84;5074207;28;20036;-55
2022/02/20 06:23:51;;;;;;;3.63;0.95;;;;;;;4.19;67.17;97519.84;5056247;28;20060;-53
2022/02/20 06:26:17;;;;;;;1.45;0.60;;;;;;;4.19;67.27;97517.19;5073770;28;20107;-56
2022/02/20 06:28:42;;;;;;;1.80;0.60;;;;;;;4.19;67.20;97522.50;5073545;28;20031;-58
2022/02/20 06:31:08;;;;;;;0.80;0.55;;;;;;;3.97;66.73;97497.97;5074050;28;20489;-59
2022/02/20 06:33:33;;;;;;;0.98;0.77;;;;;;;4.17;67.12;97549.09;5073891;28;20449;-55
2022/02/20 06:35:59;;;;;;;2.95;0.68;;;;;;;4.12;67.70;97562.78;5073406;28;20028;-57
2022/02/20 06:38:24;;;;;;;2.47;1.27;;;;;;;4.05;67.83;97552.88;5073396;28;20491;-55
2022/02/20 06:40:50;;;;;;;0.77;0.68;;;;;;;3.98;68.17;97556.09;5074158;28;20093;-56
2022/02/20 06:43:15;;;;;;;1.10;0.68;;;;;;;4.09;67.15;97573.63;5073725;28;20330;-57
2022/02/20 06:45:41;;;;;;;2.28;0.68;;;;;;;3.95;67.26;97571.41;5073139;28;20028;-55
2022/02/20 06:48:06;;;;;;;1.98;1.00;;;;;;;3.82;68.21;97592.84;5073216;28;20024;-56
2022/02/20 06:50:32;;;;;;;1.45;0.73;;;;;;;3.74;68.37;97598.81;5073815;28;20415;-59
2022/02/20 06:52:58;;;;;;;1.00;0.50;;;;;;;3.74;68.82;97604.09;5073698;28;20028;-58
2022/02/20 06:55:24;;;;;;;2.13;0.75;;;;;;;3.66;68.54;97610.06;5072804;28;20506;-57
2022/02/20 06:57:50;;;;;;;1.65;0.70;;;;;;;3.68;69.30;97607.28;5072412;28;20086;-57
2022/02/20 07:00:15;;;;;;;3.97;0.90;;;;;;;3.67;69.86;97626.78;5073315;28;20484;-57
2022/02/20 07:02:41;;;;;;;1.00;0.80;;;;;;;3.66;69.30;97625.13;5073628;28;20029;-58
2022/02/20 07:05:08;;;;;;;1.08;0.70;;;;;;;3.78;68.91;97633.78;5072660;28;20043;-58
2022/02/20 07:07:35;;;;;;;0.98;0.70;;;;;;;3.86;68.91;97637.44;5072659;28;20439;-55
2022/02/20 07:10:00;;;;;;;1.05;0.95;;;;;;;3.76;68.46;97614.56;5073040;28;20492;-57
2022/02/20 07:12:26;;;;;;;1.00;0.77;;;;;;;4.10;68.33;97664.53;5072990;28;20036;-58
2022/02/20 07:14:51;;;;;;;3.00;0.80;;;;;;;4.32;66.50;97652.84;5073116;28;20466;-59
2022/02/20 07:17:18;;;;;;;1.67;0.65;;;;;;;4.58;65.76;97671.69;5072685;28;20033;-56
2022/02/20 07:19:44;;;;;;;1.52;0.80;;;;;;;4.85;65.06;97674.63;5072780;28;20052;-54
2022/02/20 07:22:09;;;;;;;0.80;0.65;;;;;;;5.17;63.68;97684.06;5072662;28;20048;-57
2022/02/20 07:24:35;;;;;;;0.65;0.52;;;;;;;5.17;62.25;97660.19;5072631;28;20397;-58
2022/02/20 07:27:00;;;;;;;1.05;0.80;;;;;;;5.36;62.38;97692.97;5072535;28;20029;-58
2022/02/20 07:29:26;;;;;;;1.98;0.70;;;;;;;5.24;62.19;97695.78;5072510;28;20039;-58
2022/02/20 07:31:52;;;;;;;1.33;0.70;;;;;;;5.09;62.45;97705.16;5072836;28;20040;-57
2022/02/20 07:34:17;;;;;;;1.48;1.05;;;;;;;4.91;63.51;97708.53;5072248;28;20033;-59
2022/02/20 07:36:43;;;;;;;0.88;0.68;;;;;;;4.66;64.03;97704.59;5072706;28;20438;-56
2022/02/20 07:39:09;;;;;;;1.88;0.68;;;;;;;4.11;64.91;97672.34;5072239;28;20051;-55
2022/02/20 07:41:35;;;;;;;0.90;0.70;;;;;;;4.23;65.81;97725.19;5054095;28;20370;-60
2022/02/20 07:44:01;;;;;;;0.70;0.60;;;;;;;4.14;66.84;97724.19;5072667;28;20028;-54
2022/02/20 07:46:26;;;;;;;1.63;0.88;;;;;;;4.22;66.89;97731.47;5072194;28;20024;-51
2022/02/20 07:48:55;;;;;;;3.40;0.90;;;;;;;4.22;66.58;97727.00;5072226;28;20396;-57
2022/02/20 07:51:21;;;;;;;1.30;0.90;;;;;;;4.25;66.47;97741.78;5072525;28;20501;-57
2022/02/20 07:53:46;;;;;;;2.22;1.10;;;;;;;4.37;66.46;97748.66;5071825;28;20044;-57
2022/02/20 07:56:12;;;;;;;2.00;1.33;;;;;;;4.21;65.65;97720.00;5071597;28;20032;-58
2022/02/20 07:58:38;;;;;;;1.65;1.20;;;;;;;4.35;65.26;97750.59;5071925;28;20103;-56
2022/02/20 08:01:05;;;;;;;1.60;0.82;;;;;;;4.43;65.66;97781.69;5071231;28;20025;-58
2022/02/20 08:03:31;;;;;;;1.80;0.98;;;;;;;4.41;66.42;97776.56;5071366;28;20107;-57
2022/02/20 08:05:58;;;;;;;1.33;0.88;;;;;;;4.60;64.99;97772.28;5072025;28;20522;-54
2022/02/20 08:08:24;;;;;;;2.30;1.13;;;;;;;4.94;63.51;97789.59;5071485;28;20032;-56
2022/02/20 08:10:50;;;;;;;1.50;1.10;;;;;;;5.44;62.00;97788.63;5071268;28;20028;-57
2022/02/20 08:13:15;;;;;;;1.00;0.80;;;;;;;5.74;59.99;97800.88;5071262;28;20024;-60
2022/02/20 08:15:41;;;;;;;1.20;0.90;;;;;;;5.71;59.16;97803.81;5071700;28;20043;-61
2022/02/20 08:18:06;;;;;;;0.88;0.70;;;;;;;5.62;59.59;97807.31;5071892;28;20928;-62
2022/02/20 08:20:32;;;;;;;0.70;0.65;;;;;;;5.55;59.82;97822.13;5070777;28;20070;-60
2022/02/20 08:22:57;;;;;;;1.17;0.73;;;;;;;5.60;60.08;97826.06;5071789;28;20036;-61
2022/02/20 08:25:23;;;;;;;0.85;0.75;;;;;;;5.93;59.20;97843.47;5071878;28;20119;-59
2022/02/20 08:27:49;;;;;;;1.23;0.70;;;;;;;6.39;57.10;97832.97;5071643;28;20032;-61
2022/02/20 08:30:14;;;;;;;1.27;0.63;;;;;;;6.76;55.21;97842.75;5070876;28;20024;-61
2022/02/20 08:32:40;;;;;;;1.52;0.60;;;;;;;7.12;54.33;97849.94;5052773;28;20036;-59
2022/02/20 08:35:11;;;;;;;0.70;0.47;;;;;;;7.44;53.17;97852.09;5071321;28;20374;-60
2022/02/20 08:37:43;;;;;;;0.80;0.60;;;;;;;7.85;51.99;97862.25;5071642;28;20032;-60
2022/02/20 08:40:10;;;;;;;1.58;0.60;;;;;;;7.92;50.90;97858.94;5071120;28;20139;-59
2022/02/20 08:42:36;;;;;;;2.92;0.77;;;;;;;7.81;50.00;97874.22;5070767;28;20032;-61
2022/02/20 08:45:03;;;;;;;1.08;0.57;;;;;;;7.50;50.37;97858.66;5071751;28;20025;-59
2022/02/20 08:47:29;;;;;;;0.75;0.63;;;;;;;7.38;50.77;97865.19;5071763;28;20039;-54
2022/02/20 08:49:54;;;;;;;1.33;0.90;;;;;;;7.23;50.53;97870.19;5071522;28;20025;-56
2022/02/20 08:52:21;;;;;;;0.60;0.50;;;;;;;6.87;51.85;97886.94;5071057;28;20039;-58
2022/02/20 08:54:49;;;;;;;2.28;0.88;;;;;;;6.79;52.84;97898.31;5071316;28;20036;-60
2022/02/20 08:57:15;;;;;;;1.40;0.70;;;;;;;6.59;53.73;97916.19;5071232;28;20028;-59
2022/02/20 08:59:40;;;;;;;2.53;0.77;;;;;;;6.09;55.12;97909.31;5070547;28;20339;-59
2022/02/20 09:02:07;;;;;;;1.10;0.80;;;;;;;5.92;55.51;97924.13;5070202;28;20039;-59
2022/02/20 09:04:33;;;;;;;1.20;0.95;;;;;;;5.91;55.34;97925.09;5070269;28;20483;-58
2022/02/20 09:06:59;;;;;;;2.33;1.10;;;;;;;5.94;54.63;97935.44;5070793;28;20032;-59
2022/02/20 09:09:24;;;;;;;1.70;1.15;;;;;;;5.96;54.78;97931.69;5070373;28;20082;-58
2022/02/20 09:11:50;;;;;;;0.98;0.80;;;;;;;5.89;53.09;97949.13;5069970;28;20020;-60
2022/02/20 09:14:15;;;;;;;1.35;0.82;;;;;;;5.86;52.43;97937.00;5069768;28;20032;-58
2022/02/20 09:16:42;;;;;;;1.98;0.88;;;;;;;5.90;52.40;97945.50;5069911;28;20123;-57
2022/02/20 09:19:08;;;;;;;1.95;0.85;;;;;;;6.01;51.36;97937.44;5070115;28;20058;-55
2022/02/20 09:21:33;;;;;;;0.98;0.70;;;;;;;6.18;50.20;97959.78;5074842;28;20435;-61
2022/02/20 09:23:59;;;;;;;1.20;0.77;;;;;;;6.40;50.14;97967.59;5076789;28;20031;-60
2022/02/20 09:26:25;;;;;;;1.05;0.70;;;;;;;6.64;49.82;97955.63;5076668;28;20036;-61
2022/02/20 09:28:51;;;;;;;1.33;0.93;;;;;;;6.86;49.61;97975.69;5076555;28;20056;-57
2022/02/20 09:31:17;;;;;;;1.00;0.70;;;;;;;7.06;48.95;97975.63;5077257;28;20043;-59
2022/02/20 09:33:42;;;;;;;2.45;1.00;;;;;;;6.98;47.19;97971.84;5076713;28;20031;-61
2022/02/20 09:36:08;;;;;;;1.73;1.02;;;;;;;6.48;48.25;97938.47;5076800;28;20028;-58
2022/02/20 09:38:39;;;;;;;1.25;0.80;;;;;;;6.59;48.79;97982.66;5077548;28;20032;-58
2022/02/20 09:41:06;;;;;;;0.95;0.80;;;;;;;6.40;48.89;97991.50;5076996;28;20074;-61
2022/02/20 09:43:36;;;;;;;1.33;0.80;;;;;;;6.23;49.51;98001.03;5077042;28;20450;-59
2022/02/20 09:46:02;;;;;;;1.45;0.90;;;;;;;6.03;49.53;98009.03;5077610;28;20082;-60
2022/02/20 09:48:28;;;;;;;1.30;1.00;;;;;;;5.68;50.32;98002.38;5059368;28;20047;-60
2022/02/20 09:50:55;;;;;;;1.30;0.98;;;;;;;5.41;50.67;98033.06;5076711;28;20035;-58
2022/02/20 09:53:20;;;;;;;1.73;1.05;;;;;;;5.22;52.02;98040.00;5077244;28;20029;-58
2022/02/20 09:55:48;;;;;;;1.55;1.02;;;;;;;5.11;52.14;98037.44;5077192;28;20025;-55
2022/02/20 09:58:15;;;;;;;1.27;1.05;;;;;;;4.97;52.70;98038.66;5076633;28;20076;-63
2022/02/20 10:01:04;;;;;;;1.45;1.10;;;;;;;4.94;53.72;98049.50;5076559;28;20426;-62
2022/02/20 10:03:34;;;;;;;1.88;1.25;;;;;;;4.85;52.32;98048.50;5077571;28;20032;-61
2022/02/20 10:06:01;;;;;;;4.43;1.17;;;;;;;4.76;51.28;98046.63;5076770;28;20036;-67
2022/02/20 10:08:35;;;;;;;1.13;0.90;;;;;;;4.72;51.29;98056.66;5058535;28;20028;-59
2022/02/20 10:11:25;;;;;;;2.42;1.00;;;;;;;4.76;51.83;98057.22;5077202;28;20028;-61
2022/02/20 10:14:14;;;;;;;1.45;1.00;;;;;;;4.76;52.05;98054.56;5059234;28;20435;-60
2022/02/20 10:16:39;;;;;;;1.58;1.20;;;;;;;4.51;51.90;98060.16;5076248;28;20469;-62
2022/02/20 10:19:05;;;;;;;1.90;1.10;;;;;;;4.54;51.23;98072.28;5058197;28;20148;-62
2022/02/20 10:21:33;;;;;;;1.48;0.90;;;;;;;4.68;50.20;98071.97;5077688;28;20033;-61
2022/02/20 10:24:07;;;;;;;1.52;1.00;;;;;;;4.72;50.10;98107.84;5077172;28;20028;-60
2022/02/20 10:26:39;;;;;;;1.70;1.08;;;;;;;4.67;48.90;98107.41;5076590;28;20029;-58
2022/02/20 10:29:08;;;;;;;1.13;0.90;;;;;;;4.72;48.96;98096.41;5076405;28;20032;-53
2022/02/20 10:31:37;;;;;;;1.85;0.80;;;;;;;4.71;48.38;98106.16;5076112;28;20034;-61
2022/02/20 10:34:04;;;;;;;0.70;0.70;;;;;;;4.52;47.36;98084.81;5073521;28;20036;-56
2022/02/20 10:36:54;;;;;;;1.20;0.80;;;;;;;4.78;48.47;98110.94;5072774;28;20036;-61
2022/02/20 10:39:22;;;;;;;2.22;0.85;;;;;;;4.93;46.54;98107.00;5072573;28;20036;-61
2022/02/20 10:41:48;;;;;;;1.30;0.77;;;;;;;5.04;45.84;98108.75;5063802;28;20116;-59
2022/02/20 10:44:14;;;;;;;3.30;0.85;;;;;;;4.88;46.26;98119.81;5068134;28;20139;-57
2022/02/20 10:46:40;;;;;;;1.00;0.70;;;;;;;4.88;46.86;98125.94;5071320;28;20036;-60
2022/02/20 10:49:05;;;;;;;1.60;0.70;;;;;;;4.77;46.96;98109.28;5072906;28;20039;-54
2022/02/20 10:51:39;;;;;;;1.92;0.65;;;;;;;4.88;47.63;98125.94;5073978;28;20107;-59
2022/02/20 10:54:05;;;;;;;2.72;0.95;;;;;;;5.05;47.36;98128.13;5073489;28;20060;-59
2022/02/20 10:56:42;;;;;;;1.75;0.90;;;;;;;5.25;47.30;98127.28;5073140;28;20440;-56
2022/02/20 10:59:08;;;;;;;1.48;1.05;;;;;;;5.24;46.75;98152.13;5073343;28;20094;-53
2022/02/20 11:01:33;;;;;;;1.42;0.98;;;;;;;5.14;46.86;98124.72;5073698;28;20100;-55
2022/02/20 11:04:10;;;;;;;1.00;0.80;;;;;;;5.42;47.55;98162.16;5072691;28;20645;-57
2022/02/20 11:06:47;;;;;;;1.30;1.00;;;;;;;5.40;47.14;98161.44;5073185;28;20492;-55
2022/02/20 11:09:15;;;;;;;1.60;0.88;;;;;;;5.35;46.82;98158.34;5072923;28;20024;-58
2022/02/20 11:11:47;;;;;;;1.98;1.00;;;;;;;5.28;46.74;98174.78;5072620;28;20048;-61
2022/02/20 11:14:15;;;;;;;1.40;1.00;;;;;;;5.05;46.72;98183.84;5072686;28;20032;-57
2022/02/20 11:16:47;;;;;;;1.55;0.75;;;;;;;4.80;47.14;98172.66;5072479;28;20075;-56
2022/02/20 11:19:15;;;;;;;1.80;0.93;;;;;;;4.67;47.37;98181.63;5072760;28;20044;-55
2022/02/20 11:21:43;;;;;;;2.25;1.20;;;;;;;4.74;46.89;98196.06;5072705;28;20450;-57
2022/02/20 11:24:11;;;;;;;0.82;0.52;;;;;;;4.79;47.47;98202.78;5072501;28;20068;-57
2022/02/20 11:26:40;;;;;;;0.63;0.60;;;;;;;4.75;46.71;98204.88;5072928;28;20024;-58
2022/02/20 11:29:06;;;;;;;1.13;0.82;;;;;;;4.66;46.76;98200.31;5072740;28;20025;-57
2022/02/20 11:31:32;;;;;;;1.20;0.98;;;;;;;4.64;46.30;98211.06;5072367;28;20434;-59
2022/02/20 11:34:00;;;;;;;0.88;0.75;;;;;;;4.59;46.33;98215.91;5066146;28;20469;-57
2022/02/20 11:36:29;;;;;;;1.60;0.70;;;;;;;4.57;46.56;98217.78;5068460;28;20042;-57
2022/02/20 11:39:05;;;;;;;1.20;0.82;;;;;;;4.76;47.03;98211.84;5060432;28;20037;-58